Time;durP1;ratioP1;P1;durP2;ratioP2;P2;SDS_P1;SDS_P2;PMS_P1;PMS_P2;Temp;Humidity;BMP_temperature;BMP_pressure;BME280_temperature;BME280_humidity;BME280_pressure;Samples;Min_cycle;Max_cycle;Signal;HPM_P1;HPM_P2
2023/11/11 00:01:06;;;;;;;;;33.20;29.80;;;;;13.41;100.00;97357.16;6141730;28;96380;-68
2023/11/11 00:04:10;;;;;;;;;31.40;29.00;;;;;13.42;100.00;97356.09;6164632;28;96359;-68
2023/11/11 00:07:14;;;;;;;;;30.75;29.75;;;;;13.42;100.00;97355.28;6164161;28;96538;-68
2023/11/11 00:10:18;;;;;;;;;33.00;31.25;;;;;13.40;100.00;97347.41;6164724;28;96369;-68
2023/11/11 00:13:21;;;;;;;;;29.75;28.75;;;;;13.45;100.00;97352.00;6147221;28;96439;-68
2023/11/11 00:16:30;;;;;;;;;32.40;29.40;;;;;13.45;100.00;97357.41;6163299;28;96369;-68
2023/11/11 00:19:34;;;;;;;;;34.00;29.40;;;;;13.44;100.00;97355.78;6164703;28;96475;-68
2023/11/11 00:22:37;;;;;;;;;33.60;30.00;;;;;13.45;100.00;97360.94;6147050;28;96464;-68
2023/11/11 00:25:43;;;;;;;;;31.00;29.50;;;;;13.45;100.00;97358.22;6133553;28;98507;-68
2023/11/11 00:28:46;;;;;;;;;31.00;29.00;;;;;13.47;100.00;97360.66;6153755;28;96437;-68
2023/11/11 00:31:51;;;;;;;;;28.60;27.00;;;;;13.50;100.00;97360.09;6164069;28;96344;-69
2023/11/11 00:34:55;;;;;;;;;31.50;29.00;;;;;13.41;100.00;97350.94;6164374;28;96292;-68
2023/11/11 00:37:58;;;;;;;;;32.00;30.00;;;;;13.52;100.00;97351.72;6164712;28;96787;-68
2023/11/11 00:41:03;;;;;;;;;28.40;28.00;;;;;13.54;100.00;97358.47;6164516;28;96894;-68
2023/11/11 00:44:09;;;;;;;;;31.60;29.40;;;;;13.55;100.00;97364.69;6138865;28;96644;-68
2023/11/11 00:47:13;;;;;;;;;28.00;25.50;;;;;13.56;100.00;97366.31;6141485;28;96416;-68
2023/11/11 00:50:17;;;;;;;;;29.00;26.60;;;;;13.57;100.00;97367.94;6140765;28;96882;-68
2023/11/11 00:53:21;;;;;;;;;27.40;25.40;;;;;13.61;100.00;97369.81;6159385;28;96369;-68
2023/11/11 00:56:24;;;;;;;;;30.00;29.00;;;;;13.61;100.00;97364.41;6162149;28;96921;-68
2023/11/11 00:59:27;;;;;;;;;30.00;28.50;;;;;13.62;100.00;97363.31;6144266;28;96489;-68
2023/11/11 01:02:32;;;;;;;;;31.40;29.20;;;;;13.64;100.00;97363.00;6161752;28;96602;-68
2023/11/11 01:05:36;;;;;;;;;28.80;26.80;;;;;13.57;100.00;97352.50;6159702;28;97059;-68
2023/11/11 01:08:40;;;;;;;;;27.40;25.20;;;;;13.63;100.00;97361.41;6160352;28;99214;-68
2023/11/11 01:11:43;;;;;;;;;27.80;25.80;;;;;13.65;100.00;97364.63;6163097;28;96467;-68
2023/11/11 01:14:47;;;;;;;;;28.40;26.00;;;;;13.59;100.00;97350.31;6145166;28;96899;-68
2023/11/11 01:17:52;;;;;;;;;29.33;27.00;;;;;13.65;100.00;97357.34;6163291;28;97544;-68
2023/11/11 01:20:56;;;;;;;;;29.20;27.20;;;;;13.63;100.00;97362.22;6130710;28;97173;-68
2023/11/11 01:24:00;;;;;;;;;29.00;27.00;;;;;13.67;100.00;97351.66;6139424;28;97581;-68
2023/11/11 01:27:04;;;;;;;;;28.00;27.00;;;;;13.67;100.00;97349.75;6121343;28;98666;-68
2023/11/11 01:30:12;;;;;;;;;24.20;24.00;;;;;13.70;100.00;97351.88;6143181;28;96805;-68
2023/11/11 01:33:17;;;;;;;;;27.25;24.25;;;;;13.72;100.00;97343.50;6163402;28;96457;-68
2023/11/11 01:36:20;;;;;;;;;28.75;26.75;;;;;13.74;100.00;97347.53;6161795;28;97549;-68
2023/11/11 01:39:24;;;;;;;;;26.00;25.20;;;;;13.57;100.00;97320.00;6151823;23;97209;-87
2023/11/11 01:42:27;;;;;;;;;29.00;27.00;;;;;13.60;100.00;97335.69;6178316;28;96937;-87
2023/11/11 01:45:32;;;;;;;;;27.40;23.00;;;;;13.32;100.00;97323.66;6178814;28;98524;-87
2023/11/11 01:48:37;;;;;;;;;21.80;21.80;;;;;13.64;100.00;97312.38;6178968;28;99078;-87
2023/11/11 01:51:41;;;;;;;;;23.80;21.80;;;;;13.78;100.00;97332.34;6162819;28;97088;-87
2023/11/11 01:54:44;;;;;;;;;23.00;20.50;;;;;13.76;100.00;97337.25;6179073;28;99014;-87
2023/11/11 01:57:48;;;;;;;;;24.60;22.00;;;;;12.82;100.00;97204.78;6178570;28;96336;-87
2023/11/11 02:00:52;;;;;;;;;23.00;20.00;;;;;13.65;100.00;97313.19;6187794;22;99265;-68
2023/11/11 02:03:57;;;;;;;;;21.60;20.40;;;;;13.73;100.00;97326.94;6172479;22;98468;-62
2023/11/11 02:07:02;;;;;;;;;27.40;25.40;;;;;13.75;100.00;97318.56;6178132;28;96868;-62
2023/11/11 02:10:07;;;;;;;;;22.60;20.60;;;;;13.76;100.00;97318.28;6177694;28;96990;-63
2023/11/11 02:13:11;;;;;;;;;21.00;19.60;;;;;13.71;100.00;97318.31;6178708;28;96355;-62
2023/11/11 02:16:15;;;;;;;;;22.00;20.00;;;;;13.73;100.00;97318.81;6160844;28;96748;-62
2023/11/11 02:19:20;;;;;;;;;23.00;23.00;;;;;13.74;100.00;97317.75;6162898;28;96533;-62
2023/11/11 02:22:25;;;;;;;;;22.00;19.60;;;;;13.71;100.00;97312.09;6178143;28;96285;-62
2023/11/11 02:25:30;;;;;;;;;24.00;21.40;;;;;13.68;100.00;97312.66;6162788;28;96463;-62
2023/11/11 02:28:33;;;;;;;;;30.33;26.00;;;;;13.53;100.00;97296.50;6160676;28;96570;-63
2023/11/11 02:31:37;;;;;;;;;25.40;23.20;;;;;13.64;100.00;97314.28;6163063;28;96383;-62
2023/11/11 02:34:40;;;;;;;;;25.00;23.20;;;;;13.62;100.00;97317.28;6162643;28;97033;-62
2023/11/11 02:37:44;;;;;;;;;26.60;25.60;;;;;13.56;100.00;97304.84;6177786;28;97163;-62
2023/11/11 02:40:48;;;;;;;;;25.00;24.00;;;;;13.54;100.00;97298.91;6177679;28;96572;-62
2023/11/11 02:43:52;;;;;;;;;22.50;22.00;;;;;13.53;100.00;97297.31;6162610;28;96448;-62
2023/11/11 02:46:55;;;;;;;;;22.00;22.00;;;;;13.45;100.00;97281.63;6152104;28;96968;-63
2023/11/11 02:49:59;;;;;;;;;23.00;21.25;;;;;13.43;100.00;97279.22;6136863;28;96391;-62
2023/11/11 02:53:02;;;;;;;;;23.60;22.60;;;;;13.46;100.00;97283.25;6163083;28;96543;-62
2023/11/11 02:56:07;;;;;;;;;23.00;22.40;;;;;13.49;100.00;97279.19;6159401;28;96626;-62
2023/11/11 02:59:10;;;;;;;;;21.50;21.00;;;;;13.49;100.00;97274.56;6160327;28;97002;-62
2023/11/11 03:02:14;;;;;;;;;21.25;18.75;;;;;13.52;100.00;97276.72;6160537;28;96766;-62
2023/11/11 03:05:18;;;;;;;;;17.80;17.00;;;;;13.45;100.00;97287.03;6180270;28;96340;-63
2023/11/11 03:08:21;;;;;;;;;18.00;17.00;;;;;13.40;100.00;97276.22;6186153;28;96469;-62
2023/11/11 03:11:26;;;;;;;;;14.00;12.60;;;;;13.39;100.00;97283.53;6186377;28;96470;-62
2023/11/11 03:14:29;;;;;;;;;15.00;14.00;;;;;13.39;100.00;97286.25;6173100;28;97032;-62
2023/11/11 03:17:33;;;;;;;;;15.25;14.25;;;;;13.36;100.00;97286.00;6167261;28;96350;-64
2023/11/11 03:20:36;;;;;;;;;12.00;11.60;;;;;13.36;100.00;97283.28;6171430;28;97601;-64
2023/11/11 03:23:40;;;;;;;;;10.20;10.20;;;;;13.36;100.00;97286.00;6172306;28;99284;-64
2023/11/11 03:26:44;;;;;;;;;11.00;10.25;;;;;13.35;100.00;97285.19;6190149;28;96562;-64
2023/11/11 03:29:48;;;;;;;;;11.00;11.00;;;;;13.40;100.00;97278.94;6172030;28;96886;-64
2023/11/11 03:32:51;;;;;;;;;10.80;9.80;;;;;13.43;100.00;97273.81;6172020;28;100147;-64
2023/11/11 03:35:55;;;;;;;;;11.00;11.00;;;;;13.38;100.00;97270.31;6175026;28;97975;-63
2023/11/11 03:38:59;;;;;;;;;10.00;9.00;;;;;13.42;100.00;97269.47;6147556;28;97124;-64
2023/11/11 03:42:04;;;;;;;;;9.00;8.75;;;;;13.40;100.00;97266.22;6164230;28;96572;-63
2023/11/11 03:45:09;;;;;;;;;8.60;8.00;;;;;13.40;100.00;97262.69;6165261;28;96862;-64
2023/11/11 03:48:13;;;;;;;;;10.00;9.20;;;;;13.37;100.00;97261.38;6165826;28;96344;-63
2023/11/11 03:51:17;;;;;;;;;9.00;8.40;;;;;13.39;100.00;97258.38;6162446;28;96501;-63
2023/11/11 03:54:21;;;;;;;;;9.33;9.33;;;;;13.36;100.00;97257.03;6163899;28;96580;-64
2023/11/11 03:57:27;;;;;;;;;11.00;10.00;;;;;13.35;100.00;97257.31;6169457;28;96308;-64
2023/11/11 04:00:31;;;;;;;;;9.00;9.00;;;;;13.36;100.00;97258.94;6165834;28;96429;-64
2023/11/11 04:03:36;;;;;;;;;9.00;8.00;;;;;13.33;100.00;97260.31;6146919;28;98460;-64
2023/11/11 04:06:40;;;;;;;;;9.00;9.00;;;;;13.35;100.00;97251.91;6165627;28;96992;-64
2023/11/11 04:09:44;;;;;;;;;9.60;9.00;;;;;13.32;100.00;97256.00;6181063;28;96427;-64
2023/11/11 04:12:49;;;;;;;;;8.50;8.50;;;;;13.30;100.00;97254.63;6180376;28;96348;-64
2023/11/11 04:15:52;;;;;;;;;9.00;8.00;;;;;13.30;100.00;97243.81;6179815;28;96451;-64
2023/11/11 04:18:55;;;;;;;;;9.00;8.00;;;;;13.33;100.00;97249.50;6165287;28;96316;-64
2023/11/11 04:21:59;;;;;;;;;6.80;6.80;;;;;13.32;100.00;97238.94;6147352;28;96772;-64
2023/11/11 04:25:05;;;;;;;;;8.00;7.00;;;;;13.31;100.00;97237.31;6163362;28;96489;-64
2023/11/11 04:28:10;;;;;;;;;7.00;6.00;;;;;13.37;100.00;97237.00;6164841;28;96352;-63
2023/11/11 04:31:17;;;;;;;;;5.20;4.80;;;;;13.41;100.00;97237.25;6165086;28;96921;-62
2023/11/11 04:34:21;;;;;;;;;6.40;6.40;;;;;13.39;100.00;97239.41;6180730;28;96408;-63
2023/11/11 04:37:24;;;;;;;;;6.20;6.20;;;;;13.39;100.00;97234.81;6163243;28;96736;-63
2023/11/11 04:40:32;;;;;;;;;5.50;5.00;;;;;13.38;100.00;97227.00;6163639;28;96536;-62
2023/11/11 04:43:37;;;;;;;;;9.00;7.50;;;;;13.37;100.00;97228.09;6164784;28;96392;-63
2023/11/11 04:46:40;;;;;;;;;5.80;4.20;;;;;13.36;100.00;97231.88;6162078;28;96771;-62
2023/11/11 04:49:43;;;;;;;;;5.00;5.00;;;;;13.40;100.00;97232.94;6164929;28;96423;-62
2023/11/11 04:52:47;;;;;;;;;7.60;7.00;;;;;13.44;100.00;97239.41;6164276;28;96523;-62
2023/11/11 04:55:52;;;;;;;;;6.00;6.00;;;;;13.41;100.00;97237.25;6162715;28;96375;-62
2023/11/11 04:58:57;;;;;;;;;6.00;6.00;;;;;13.40;100.00;97236.44;6164106;28;96367;-62
2023/11/11 05:02:01;;;;;;;;;7.00;7.00;;;;;13.36;100.00;97248.13;6163451;28;96144;-62
2023/11/11 05:05:05;;;;;;;;;7.00;7.00;;;;;13.42;100.00;97252.41;6162475;28;96517;-62
2023/11/11 05:08:08;;;;;;;;;7.40;6.80;;;;;13.37;100.00;97241.63;6163846;28;96547;-62
2023/11/11 05:11:12;;;;;;;;;7.00;7.00;;;;;13.30;100.00;97244.63;6163671;28;96951;-62
2023/11/11 05:14:18;;;;;;;;;5.25;5.25;;;;;13.29;100.00;97244.91;6161843;28;97579;-62
2023/11/11 05:17:25;;;;;;;;;7.00;6.00;;;;;13.24;100.00;97240.31;6179796;28;96391;-62
2023/11/11 05:20:30;;;;;;;;;6.00;6.00;;;;;13.22;100.00;97234.38;6164332;28;96216;-63
2023/11/11 05:23:33;;;;;;;;;7.00;5.60;;;;;13.18;100.00;97248.75;6146580;28;98310;-62
2023/11/11 05:26:39;;;;;;;;;8.60;8.00;;;;;13.21;100.00;97254.41;6164386;28;96345;-62
2023/11/11 05:29:44;;;;;;;;;6.00;6.00;;;;;13.19;100.00;97236.84;6179848;28;97663;-62
2023/11/11 05:32:47;;;;;;;;;5.00;5.00;;;;;13.18;100.00;97232.53;6162309;28;96729;-62
2023/11/11 05:35:50;;;;;;;;;6.00;5.40;;;;;13.21;100.00;97238.19;6178691;28;96851;-62
2023/11/11 05:38:54;;;;;;;;;5.00;4.00;;;;;13.06;100.00;97242.81;6144628;28;98519;-65
2023/11/11 05:41:57;;;;;;;;;4.00;4.00;;;;;13.07;100.00;97239.03;6163040;28;96318;-64
2023/11/11 05:45:02;;;;;;;;;6.00;5.40;;;;;13.09;100.00;97234.16;6163437;28;96523;-65
2023/11/11 05:48:06;;;;;;;;;5.40;5.00;;;;;13.11;100.00;97240.94;6160953;28;99247;-65
2023/11/11 05:51:10;;;;;;;;;6.00;5.00;;;;;13.00;100.00;97242.03;6160525;28;97827;-65
2023/11/11 05:54:14;;;;;;;;;8.00;7.80;;;;;13.02;100.00;97237.97;6144924;28;97736;-65
2023/11/11 05:57:17;;;;;;;;;7.00;6.00;;;;;13.02;100.00;97246.09;6178192;28;96965;-64
2023/11/11 06:00:22;;;;;;;;;9.60;9.00;;;;;12.99;100.00;97257.47;6163011;28;96455;-65
2023/11/11 06:03:25;;;;;;;;;7.00;7.00;;;;;13.04;100.00;97256.63;6167581;28;96269;-65
2023/11/11 06:06:29;;;;;;;;;7.00;7.00;;;;;13.07;100.00;97256.06;6172815;28;97524;-64
2023/11/11 06:09:34;;;;;;;;;9.00;9.00;;;;;12.96;100.00;97247.19;6169520;28;96569;-65
2023/11/11 06:12:38;;;;;;;;;7.00;6.00;;;;;12.97;100.00;97254.22;6179366;28;96265;-64
2023/11/11 06:15:44;;;;;;;;;8.00;8.00;;;;;12.99;100.00;97262.88;6177297;28;96801;-65
2023/11/11 06:18:48;;;;;;;;;8.00;8.00;;;;;13.01;100.00;97266.09;6163393;28;96500;-65
2023/11/11 06:21:51;;;;;;;;;7.00;6.60;;;;;12.99;100.00;97262.06;6134006;28;98571;-64
2023/11/11 06:24:54;;;;;;;;;7.20;7.20;;;;;13.04;100.00;97275.56;6146921;28;96575;-65
2023/11/11 06:27:58;;;;;;;;;9.00;8.75;;;;;13.05;100.00;97277.16;6163257;28;96329;-65
2023/11/11 06:31:03;;;;;;;;;8.00;7.00;;;;;13.06;100.00;97275.28;6140898;28;98452;-65
2023/11/11 06:34:06;;;;;;;;;8.00;8.00;;;;;13.03;100.00;97276.66;6162852;28;97023;-65
2023/11/11 06:37:10;;;;;;;;;9.40;9.40;;;;;13.03;100.00;97282.06;6163487;28;96501;-65
2023/11/11 06:40:14;;;;;;;;;9.00;9.00;;;;;12.98;100.00;97280.19;6144874;28;98617;-65
2023/11/11 06:43:17;;;;;;;;;7.00;7.00;;;;;12.99;100.00;97275.59;6128631;28;98591;-65
2023/11/11 06:46:22;;;;;;;;;6.40;6.00;;;;;13.03;100.00;97285.59;6163933;28;96780;-65
2023/11/11 06:49:26;;;;;;;;;7.00;7.00;;;;;13.07;100.00;97276.91;6165301;28;97139;-64
2023/11/11 06:52:30;;;;;;;;;6.00;6.00;;;;;13.10;100.00;97276.34;6165130;28;99071;-64
2023/11/11 06:55:34;;;;;;;;;6.00;6.00;;;;;13.17;100.00;97279.59;6164398;28;96843;-63
2023/11/11 06:58:38;;;;;;;;;5.00;5.00;;;;;13.18;100.00;97275.81;6165388;28;98262;-64
2023/11/11 07:01:43;;;;;;;;;7.00;7.00;;;;;13.18;100.00;97275.81;6150390;28;96730;-63
2023/11/11 07:04:48;;;;;;;;;6.00;6.00;;;;;13.12;100.00;97275.03;6162250;28;96985;-64
2023/11/11 07:07:52;;;;;;;;;6.00;6.00;;;;;13.20;100.00;97271.72;6160552;28;96798;-63
2023/11/11 07:10:55;;;;;;;;;8.00;8.00;;;;;13.25;100.00;97274.41;6170601;28;97726;-63
2023/11/11 07:13:59;;;;;;;;;8.00;8.00;;;;;13.27;100.00;97277.66;6165591;28;96363;-64
2023/11/11 07:17:04;;;;;;;;;5.20;5.00;;;;;13.30;100.00;97277.09;6164909;28;97640;-63
2023/11/11 07:20:09;;;;;;;;;6.00;6.00;;;;;13.34;100.00;97282.78;6166747;28;96331;-64
2023/11/11 07:23:14;;;;;;;;;7.80;7.80;;;;;13.34;100.00;97288.97;6160363;28;99800;-64
2023/11/11 07:26:19;;;;;;;;;7.00;7.00;;;;;13.34;100.00;97283.56;6152516;28;99141;-64
2023/11/11 07:29:25;;;;;;;;;7.00;7.00;;;;;13.39;100.00;97288.94;6133029;28;97316;-64
2023/11/11 07:32:30;;;;;;;;;8.00;8.00;;;;;13.45;100.00;97276.22;6165020;28;96216;-63
2023/11/11 07:35:33;;;;;;;;;5.40;5.40;;;;;13.42;100.00;97269.47;6146411;28;96801;-63
2023/11/11 07:38:39;;;;;;;;;8.60;8.00;;;;;13.44;100.00;97278.09;6173983;28;97514;-64
2023/11/11 07:41:42;;;;;;;;;7.00;7.00;;;;;13.50;100.00;97276.19;6118490;28;97529;-63
2023/11/11 07:44:45;;;;;;;;;6.00;5.75;;;;;13.57;100.00;97284.00;6148989;28;98741;-63
2023/11/11 07:47:50;;;;;;;;;6.00;6.00;;;;;13.60;100.00;97276.13;6172130;28;97211;-63
2023/11/11 07:50:53;;;;;;;;;6.00;6.00;;;;;13.62;100.00;97273.97;6173997;28;97039;-63
2023/11/11 07:53:57;;;;;;;;;5.40;5.00;;;;;13.69;100.00;97269.03;6173802;28;96327;-63
2023/11/11 07:57:00;;;;;;;;;9.00;8.00;;;;;13.74;100.00;97277.13;6160175;28;96215;-63
2023/11/11 08:00:06;;;;;;;;;5.50;5.50;;;;;13.77;100.00;97276.56;6157306;28;97024;-65
2023/11/11 08:03:11;;;;;;;;;6.20;6.00;;;;;13.72;100.00;97276.59;6161796;28;96291;-65
2023/11/11 08:06:14;;;;;;;;;8.00;7.60;;;;;13.74;100.00;97279.00;6146371;28;96813;-65
2023/11/11 08:09:20;;;;;;;;;6.50;6.50;;;;;13.83;100.00;97282.75;6140379;28;96599;-65
2023/11/11 08:12:24;;;;;;;;;10.00;9.00;;;;;13.87;100.00;97279.22;6152242;28;96700;-65
2023/11/11 08:15:28;;;;;;;;;6.50;6.00;;;;;13.97;100.00;97282.94;6134462;28;98614;-65
2023/11/11 08:18:32;;;;;;;;;4.20;4.20;;;;;14.03;100.00;97270.94;6136071;28;96945;-65
2023/11/11 08:21:48;;;;;;;;;10.00;9.40;;;;;14.05;100.00;97269.59;6139140;28;96926;-65
2023/11/11 08:24:51;;;;;;;;;7.00;6.80;;;;;14.04;100.00;97267.16;6136799;28;96719;-65
2023/11/11 08:27:55;;;;;;;;;7.80;7.00;;;;;14.08;100.00;97269.00;6137266;28;97005;-65
2023/11/11 08:30:59;;;;;;;;;9.00;9.00;;;;;14.13;100.00;97266.25;6131841;28;97799;-65
2023/11/11 08:34:08;;;;;;;;;9.40;9.00;;;;;14.07;100.00;97270.13;6138007;28;97878;-65
2023/11/11 08:37:11;;;;;;;;;9.00;8.50;;;;;14.05;100.00;97263.34;6129931;28;96671;-65
2023/11/11 08:40:17;;;;;;;;;8.00;8.00;;;;;14.11;100.00;97254.09;6124843;28;97077;-65
2023/11/11 08:43:20;;;;;;;;;9.40;9.00;;;;;14.15;100.00;97260.56;6137886;28;97209;-65
2023/11/11 08:46:23;;;;;;;;;8.00;8.00;;;;;14.12;100.00;97255.72;6136571;28;96664;-65
2023/11/11 08:49:28;;;;;;;;;8.00;8.00;;;;;14.11;100.00;97262.22;6142217;28;96745;-65
2023/11/11 08:52:33;;;;;;;;;8.25;8.00;;;;;14.05;100.00;97261.47;6142643;28;96342;-65
2023/11/11 08:55:36;;;;;;;;;9.00;9.00;;;;;13.99;100.00;97259.88;6135160;28;96524;-65
2023/11/11 08:58:41;;;;;;;;;8.60;8.60;;;;;14.02;100.00;97263.94;6132414;28;98583;-65
2023/11/11 09:01:45;;;;;;;;;11.20;10.60;;;;;14.07;100.00;97255.75;6131164;28;97995;-65
2023/11/11 09:04:52;;;;;;;;;9.00;9.00;;;;;14.08;100.00;97270.91;6150070;28;96568;-65
2023/11/11 09:07:56;;;;;;;;;12.00;12.00;;;;;14.10;100.00;97269.56;6159137;28;96546;-63
2023/11/11 09:10:59;;;;;;;;;10.00;9.00;;;;;14.07;100.00;97277.44;6162906;28;96876;-63
2023/11/11 09:14:04;;;;;;;;;11.25;11.00;;;;;14.02;100.00;97272.06;6166016;28;96868;-64
2023/11/11 09:17:07;;;;;;;;;13.50;11.50;;;;;13.98;100.00;97274.50;6186946;28;96513;-63
2023/11/11 09:20:12;;;;;;;;;12.40;11.40;;;;;14.05;100.00;97282.31;6167782;28;97259;-63
2023/11/11 09:23:15;;;;;;;;;13.40;13.00;;;;;14.06;100.00;97276.63;6181350;28;96277;-64
2023/11/11 09:26:19;;;;;;;;;15.00;13.20;;;;;14.02;100.00;97272.88;6139403;28;96598;-63
2023/11/11 09:29:23;;;;;;;;;16.60;16.00;;;;;14.02;100.00;97274.78;6157876;28;96397;-63
2023/11/11 09:32:26;;;;;;;;;15.00;13.00;;;;;14.03;100.00;97270.94;6163341;28;96280;-64
2023/11/11 09:35:31;;;;;;;;;16.00;15.00;;;;;14.03;100.00;97270.94;6160469;28;97617;-63
2023/11/11 09:38:35;;;;;;;;;18.00;16.00;;;;;14.02;100.00;97270.16;6177450;28;96517;-63
2023/11/11 09:41:38;;;;;;;;;20.20;19.00;;;;;13.99;100.00;97272.59;6158191;28;96690;-63
2023/11/11 09:44:41;;;;;;;;;23.80;21.20;;;;;14.02;100.00;97269.34;6162033;28;97589;-63
2023/11/11 09:47:52;;;;;;;;;20.00;19.00;;;;;14.00;100.00;97261.50;6159549;28;96601;-63
2023/11/11 09:50:57;;;;;;;;;25.40;22.00;;;;;14.04;100.00;97259.84;6161096;28;96593;-63
2023/11/11 09:54:02;;;;;;;;;27.75;26.75;;;;;14.08;100.00;97270.91;6143767;28;96782;-63
2023/11/11 09:57:08;;;;;;;;;27.00;27.00;;;;;14.09;100.00;97257.09;6160036;28;96856;-63
2023/11/11 10:00:14;;;;;;;;;27.00;24.00;;;;;14.10;100.00;97257.91;6159771;28;97425;-62
2023/11/11 10:03:17;;;;;;;;;32.00;29.00;;;;;14.07;100.00;97253.06;6164731;28;96866;-63
2023/11/11 10:06:24;;;;;;;;;26.80;24.80;;;;;14.07;100.00;97250.34;6174142;28;96716;-63
2023/11/11 10:09:27;;;;;;;;;27.75;25.50;;;;;14.12;100.00;97251.09;6170927;28;96663;-63
2023/11/11 10:12:32;;;;;;;;;31.50;29.50;;;;;14.20;100.00;97255.91;6137040;28;96333;-63
2023/11/11 10:15:36;;;;;;;;;30.00;28.00;;;;;14.19;100.00;97253.47;6149499;28;97657;-63
2023/11/11 10:18:40;;;;;;;;;32.40;30.00;;;;;14.26;100.00;97249.38;6163768;28;96640;-63
2023/11/11 10:21:45;;;;;;;;;31.00;28.75;;;;;14.31;100.00;97243.91;6144987;28;96392;-63
2023/11/11 10:24:48;;;;;;;;;30.20;27.20;;;;;14.39;100.00;97241.69;6152367;28;97908;-63
2023/11/11 10:27:53;;;;;;;;;34.00;29.00;;;;;14.48;100.00;97239.94;6166778;28;96712;-63
2023/11/11 10:31:06;;;;;;;;;36.60;32.00;;;;;14.63;100.00;97229.75;6147872;28;98399;-63
2023/11/11 10:34:24;;;;;;;;;33.40;30.40;;;;;14.72;100.00;97228.03;6179546;28;97039;-63
2023/11/11 10:37:29;;;;;;;;;32.25;28.00;;;;;14.81;100.00;97220.06;6175169;28;96682;-63
2023/11/11 10:40:32;;;;;;;;;35.25;31.25;;;;;14.93;100.00;97220.47;6176441;28;96328;-63
2023/11/11 10:43:36;;;;;;;;;37.00;32.00;;;;;15.02;100.00;97215.19;6167511;28;96916;-63
2023/11/11 10:46:40;;;;;;;;;39.20;31.60;;;;;15.09;100.00;97212.94;6171655;28;96930;-63
2023/11/11 10:49:44;;;;;;;;;29.40;28.00;;;;;15.19;100.00;97210.09;6165407;28;97560;-63
2023/11/11 10:52:54;;;;;;;;;38.00;32.00;;;;;15.21;100.00;97207.91;6151905;28;97043;-63
2023/11/11 10:55:59;;;;;;;;;36.50;32.00;;;;;15.18;100.00;97206.59;6163554;28;96329;-63
2023/11/11 10:59:04;;;;;;;;;36.00;31.00;;;;;15.23;100.00;97204.91;6162056;28;96897;-63
2023/11/11 11:02:10;;;;;;;;;37.20;32.00;;;;;15.26;100.00;97204.28;6164529;28;96651;-63
2023/11/11 11:05:19;;;;;;;;;36.60;31.40;;;;;15.20;100.00;97210.91;6163609;28;97103;-63
2023/11/11 11:08:32;;;;;;;;;37.50;32.00;;;;;15.06;100.00;97195.34;6164532;28;96491;-64
2023/11/11 11:11:46;;;;;;;;;36.20;30.40;;;;;15.12;100.00;97210.47;6165154;28;96470;-64
2023/11/11 11:14:51;;;;;;;;;37.25;31.25;;;;;15.06;100.00;97202.66;6138658;28;98550;-65
2023/11/11 11:17:55;;;;;;;;;35.00;30.80;;;;;15.09;100.00;97192.06;6138273;28;96359;-64
2023/11/11 11:21:03;;;;;;;;;31.50;29.00;;;;;15.08;100.00;97193.16;6141591;28;96420;-65
2023/11/11 11:24:12;;;;;;;;;30.00;28.00;;;;;15.14;100.00;97196.59;6137962;28;97728;-64
2023/11/11 11:27:15;;;;;;;;;34.00;30.00;;;;;15.10;100.00;97195.56;6149576;28;96841;-65
2023/11/11 11:30:24;;;;;;;;;34.20;30.60;;;;;15.19;100.00;97196.53;6130519;28;96697;-70
2023/11/11 11:33:28;;;;;;;;;34.50;30.75;;;;;15.25;100.00;97197.28;6138871;28;96718;-69
2023/11/11 11:36:52;;;;;;;;;34.60;30.20;;;;;15.26;100.00;97190.72;6137218;28;97183;-69
2023/11/11 11:40:08;;;;;;;;;33.00;28.60;;;;;15.30;100.00;97189.03;6137817;28;97988;-69
2023/11/11 11:43:12;;;;;;;;;34.60;30.00;;;;;15.37;100.00;97197.63;6147916;28;96735;-68
2023/11/11 11:46:16;;;;;;;;;36.20;31.40;;;;;15.46;100.00;97196.69;6137489;28;97346;-69
2023/11/11 11:49:19;;;;;;;;;40.00;34.00;;;;;15.51;100.00;97199.34;6137692;28;96729;-69
2023/11/11 11:52:23;;;;;;;;;35.00;31.50;;;;;15.52;100.00;97192.81;6137707;28;96530;-69
2023/11/11 11:55:38;;;;;;;;;36.00;31.80;;;;;15.43;100.00;97189.13;6141888;28;96611;-69
2023/11/11 11:58:46;;;;;;;;;38.00;32.00;;;;;15.48;100.00;97199.13;6146627;28;97449;-69
2023/11/11 12:01:49;;;;;;;;;39.00;33.00;;;;;15.37;100.00;97192.22;6133111;28;97069;-69
2023/11/11 12:04:53;;;;;;;;;35.25;32.00;;;;;15.32;100.00;97192.28;6151055;28;96933;-69
2023/11/11 12:07:58;;;;;;;;;40.20;33.80;;;;;15.20;100.00;97192.69;6131705;28;96771;-69
2023/11/11 12:11:03;;;;;;;;;37.80;32.00;;;;;15.09;100.00;97186.63;6111537;28;97203;-68
2023/11/11 12:14:08;;;;;;;;;45.00;35.00;;;;;15.14;100.00;97199.31;6139952;28;98852;-69
2023/11/11 12:17:17;;;;;;;;;39.25;34.00;;;;;15.04;100.00;97194.84;6123204;28;96721;-69
2023/11/11 12:20:38;;;;;;;;;32.60;30.80;;;;;15.05;100.00;97198.34;6107795;28;97256;-70
2023/11/11 12:23:41;;;;;;;;;42.40;34.00;;;;;15.01;100.00;97181.81;6104418;28;97454;-69
2023/11/11 12:26:47;;;;;;;;;38.60;33.20;;;;;14.98;100.00;97192.47;6118742;28;96792;-69
2023/11/11 12:29:51;;;;;;;;;39.50;33.00;;;;;14.97;100.00;97186.22;6139977;28;97634;-69
2023/11/11 12:33:05;;;;;;;;;40.00;35.00;;;;;15.00;100.00;97177.50;6121603;28;98830;-68
2023/11/11 12:36:09;;;;;;;;;42.80;35.60;;;;;15.01;100.00;97179.13;6120672;28;97809;-69
2023/11/11 12:39:13;;;;;;;;;40.60;34.00;;;;;15.00;100.00;97179.44;6121731;28;98438;-65
2023/11/11 12:42:24;;;;;;;;;45.00;36.40;;;;;15.01;100.00;97178.31;6140041;28;96385;-65
2023/11/11 12:45:29;;;;;;;;;38.00;33.00;;;;;14.95;100.00;97177.59;6139490;28;96508;-64
2023/11/11 12:48:34;;;;;;;;;39.25;32.00;;;;;14.86;100.00;97176.59;6121934;28;96364;-64
2023/11/11 12:51:38;;;;;;;;;38.25;32.25;;;;;14.93;100.00;97189.81;6117494;28;99257;-65
2023/11/11 12:54:43;;;;;;;;;38.25;32.00;;;;;14.85;100.00;97180.44;6120704;28;96611;-65
2023/11/11 12:57:48;;;;;;;;;37.20;32.60;;;;;14.86;100.00;97183.91;6119572;28;98963;-65
2023/11/11 13:00:55;;;;;;;;;39.00;32.80;;;;;14.83;100.00;97184.50;6137223;28;96492;-65
2023/11/11 13:04:03;;;;;;;;;45.00;36.00;;;;;14.84;100.00;97183.41;6130019;28;97121;-64
2023/11/11 13:07:18;;;;;;;;;44.00;35.00;;;;;14.85;100.00;97180.44;6160636;28;97228;-65
2023/11/11 13:10:23;;;;;;;;;45.40;37.60;;;;;14.88;100.00;97181.75;6157000;28;96854;-65
2023/11/11 13:13:29;;;;;;;;;38.80;34.00;;;;;14.91;100.00;97181.16;6159577;28;96699;-65
2023/11/11 13:16:33;;;;;;;;;40.60;35.00;;;;;14.92;100.00;97182.75;6123199;28;96739;-65
2023/11/11 13:19:39;;;;;;;;;42.00;33.50;;;;;14.96;100.00;97181.09;6161277;28;96494;-65
2023/11/11 13:22:43;;;;;;;;;36.25;31.75;;;;;14.95;100.00;97184.91;6161917;28;96430;-64
2023/11/11 13:25:52;;;;;;;;;35.00;30.00;;;;;14.96;100.00;97192.75;6162906;28;97008;-66
2023/11/11 13:28:56;;;;;;;;;36.00;30.50;;;;;14.95;100.00;97188.44;6162966;28;96393;-66
2023/11/11 13:32:00;;;;;;;;;41.60;33.00;;;;;14.98;100.00;97179.72;6160669;28;98850;-64
2023/11/11 13:35:07;;;;;;;;;41.50;35.00;;;;;14.91;100.00;97181.16;6162362;28;96691;-65
2023/11/11 13:38:10;;;;;;;;;38.20;32.00;;;;;14.93;100.00;97179.78;6177749;28;96417;-65
2023/11/11 13:41:15;;;;;;;;;37.50;32.00;;;;;14.95;100.00;97176.78;6178010;28;96644;-65
2023/11/11 13:44:20;;;;;;;;;41.00;33.00;;;;;14.98;100.00;97181.59;6160809;28;96463;-65
2023/11/11 13:47:24;;;;;;;;;41.00;33.25;;;;;14.99;100.00;97183.22;6159070;28;96254;-65
2023/11/11 13:50:28;;;;;;;;;42.20;34.40;;;;;14.95;100.00;97185.72;6155055;28;96426;-69
2023/11/11 13:53:32;;;;;;;;;45.00;35.00;;;;;14.96;100.00;97192.75;6160913;28;96955;-69
2023/11/11 13:56:36;;;;;;;;;41.25;34.75;;;;;14.88;100.00;97192.59;6163115;28;96566;-69
2023/11/11 13:59:41;;;;;;;;;45.40;36.00;;;;;14.80;100.00;97188.63;6160600;28;98503;-68
2023/11/11 14:02:45;;;;;;;;;47.00;37.00;;;;;14.80;100.00;97193.25;6136840;28;98695;-69
2023/11/11 14:05:49;;;;;;;;;46.40;37.00;;;;;14.72;100.00;97197.38;6124044;28;96584;-69